createdAt,value
2022-12-15T00:00:19.091Z,-8.51
2022-12-15T00:03:04.453Z,-9.13
2022-12-15T00:05:51.168Z,-8.89
2022-12-15T00:08:36.824Z,-8.86
2022-12-15T00:11:23.064Z,-8.93
2022-12-15T00:14:08.739Z,-8.93
2022-12-15T00:17:10.712Z,-8.76
2022-12-15T00:19:55.893Z,-8.54
2022-12-15T00:22:41.340Z,-8.51
2022-12-15T00:25:26.827Z,-8.55
2022-12-15T00:28:15.365Z,-8.65
2022-12-15T00:31:02.719Z,-8.36
2022-12-15T00:33:49.782Z,-8.73
2022-12-15T00:36:35.039Z,-8.50
2022-12-15T00:39:04.038Z,-8.51
2022-12-15T00:41:32.382Z,-8.41
2022-12-15T00:44:00.483Z,-8.89
2022-12-15T00:46:45.696Z,-8.35
2022-12-15T00:49:28.994Z,-8.25
2022-12-15T00:52:15.184Z,-8.37
2022-12-15T00:55:00.515Z,-8.61
2022-12-15T00:57:45.782Z,-8.74
2022-12-15T01:00:32.407Z,-8.81
2022-12-15T01:03:17.604Z,-8.72
2022-12-15T01:06:04.221Z,-8.91
2022-12-15T01:08:49.540Z,-8.88
2022-12-15T01:11:34.798Z,-8.95
2022-12-15T01:14:20.178Z,-9.23
2022-12-15T01:17:05.373Z,-9.36
2022-12-15T01:19:50.660Z,-9.37
2022-12-15T01:22:20.016Z,-9.33
2022-12-15T01:24:47.979Z,-8.91
2022-12-15T01:27:15.834Z,-8.98
2022-12-15T01:29:44.067Z,-8.98
2022-12-15T01:32:12.207Z,-9.30
2022-12-15T01:34:40.512Z,-9.36
2022-12-15T01:37:08.612Z,-8.78
2022-12-15T01:39:55.374Z,-8.83
2022-12-15T01:42:23.297Z,-8.63
2022-12-15T01:44:53.321Z,-8.67
2022-12-15T01:47:26.479Z,-8.83
2022-12-15T01:49:55.988Z,-8.96
2022-12-15T01:52:23.928Z,-9.12
2022-12-15T01:54:57.126Z,-8.91
2022-12-15T01:57:30.077Z,-9.04
2022-12-15T02:00:02.696Z,-8.89
2022-12-15T02:02:35.632Z,-8.94
2022-12-15T02:05:09.194Z,-9.01
2022-12-15T02:07:37.013Z,-9.06
2022-12-15T02:10:10.255Z,-9.56
2022-12-15T02:12:46.378Z,-11.06
2022-12-15T02:15:21.652Z,-9.13
2022-12-15T02:17:58.704Z,-9.44
2022-12-15T02:20:52.454Z,-9.00
2022-12-15T02:24:10.615Z,-8.97
2022-12-15T02:27:14.131Z,-9.11
2022-12-15T02:30:10.631Z,-9.12
2022-12-15T02:32:44.347Z,-8.87
2022-12-15T02:35:17.926Z,-8.86
2022-12-15T02:37:49.858Z,-8.82
2022-12-15T02:40:18.858Z,-9.30
2022-12-15T02:42:52.566Z,-9.88
2022-12-15T02:45:25.351Z,-8.92
2022-12-15T02:48:01.881Z,-9.05
2022-12-15T02:50:59.453Z,-9.09
2022-12-15T02:53:46.991Z,-8.96
2022-12-15T02:56:24.560Z,-9.96
2022-12-15T02:59:04.028Z,-8.91
2022-12-15T03:01:38.020Z,-9.01
2022-12-15T03:04:09.485Z,-8.95
2022-12-15T03:06:38.360Z,-8.63
2022-12-15T03:09:06.546Z,-8.56
2022-12-15T03:11:35.198Z,-8.37
2022-12-15T03:14:03.083Z,-8.40
2022-12-15T03:16:31.068Z,-8.73
2022-12-15T03:19:00.560Z,-8.42
2022-12-15T03:21:28.437Z,-8.61
2022-12-15T03:23:56.376Z,-8.66
2022-12-15T03:26:24.751Z,-8.29
2022-12-15T03:28:52.806Z,-8.44
2022-12-15T03:31:20.774Z,-8.44
2022-12-15T03:33:48.843Z,-8.36
2022-12-15T03:36:18.099Z,-8.58
2022-12-15T03:38:46.069Z,-8.52
2022-12-15T03:41:14.037Z,-8.87
2022-12-15T03:43:42.126Z,-8.20
2022-12-15T03:46:10.161Z,-9.50
2022-12-15T03:48:38.465Z,-8.46
2022-12-15T03:51:06.632Z,-8.28
2022-12-15T03:53:36.280Z,-8.20
2022-12-15T03:56:04.514Z,-8.21
2022-12-15T03:58:32.587Z,-8.33
2022-12-15T04:01:00.648Z,-8.13
2022-12-15T04:03:29.077Z,-8.03
2022-12-15T04:05:57.572Z,-8.15
2022-12-15T04:08:26.952Z,-9.53
2022-12-15T04:10:56.308Z,-7.83
2022-12-15T04:13:24.259Z,-7.73
2022-12-15T04:15:52.185Z,-7.88
2022-12-15T04:18:20.379Z,-8.00
2022-12-15T04:20:47.486Z,-8.38
2022-12-15T04:23:18.401Z,-8.34
2022-12-15T04:26:03.701Z,-8.08
2022-12-15T04:28:50.816Z,-8.76
2022-12-15T04:31:39.345Z,-8.36
2022-12-15T04:34:29.532Z,-8.57
2022-12-15T04:37:15.059Z,-9.01
2022-12-15T04:40:04.614Z,-8.70
2022-12-15T04:42:51.618Z,-8.73
2022-12-15T04:45:41.733Z,-8.66
2022-12-15T04:48:27.586Z,-8.63
2022-12-15T04:51:13.566Z,-8.78
2022-12-15T04:53:58.738Z,-8.72
2022-12-15T04:56:44.651Z,-8.65
2022-12-15T04:59:29.912Z,-8.59
2022-12-15T05:02:17.042Z,-8.45
2022-12-15T05:05:02.391Z,-8.46
2022-12-15T05:07:47.399Z,-8.28
2022-12-15T05:10:33.209Z,-8.39
2022-12-15T05:13:23.266Z,-8.72
2022-12-15T05:16:08.587Z,-8.80
2022-12-15T05:18:55.882Z,-8.35
2022-12-15T05:21:41.181Z,-8.53
2022-12-15T05:24:27.021Z,-8.60
2022-12-15T05:27:12.309Z,-8.47
2022-12-15T05:29:57.739Z,-8.38
2022-12-15T05:32:25.721Z,-8.61
2022-12-15T05:34:55.248Z,-8.91
2022-12-15T05:37:23.066Z,-8.88
2022-12-15T05:39:50.987Z,-8.83
2022-12-15T05:42:18.881Z,-9.19
2022-12-15T05:44:46.871Z,-9.22
2022-12-15T05:47:17.987Z,-9.33
2022-12-15T05:49:45.823Z,-9.03
2022-12-15T05:52:15.156Z,-8.94
2022-12-15T05:54:43.028Z,-9.41
2022-12-15T05:57:10.955Z,-9.31
2022-12-15T05:59:38.925Z,-8.77
2022-12-15T06:02:07.699Z,-8.95
2022-12-15T06:04:35.837Z,-8.47
2022-12-15T06:07:04.097Z,-8.40
2022-12-15T06:09:33.399Z,-8.62
2022-12-15T06:12:01.334Z,-8.49
2022-12-15T06:14:29.222Z,-8.58
2022-12-15T06:16:57.378Z,-8.63
2022-12-15T06:19:25.244Z,-8.64
2022-12-15T06:21:53.235Z,-8.63
2022-12-15T06:24:21.409Z,-8.86
2022-12-15T06:26:50.816Z,-8.78
2022-12-15T06:29:19.014Z,-8.90
2022-12-15T06:31:47.075Z,-8.87
2022-12-15T06:34:17.207Z,-9.13
2022-12-15T06:36:45.631Z,-8.99
2022-12-15T06:39:15.302Z,-8.90
2022-12-15T06:41:44.217Z,-9.19
2022-12-15T06:44:16.207Z,-8.90
2022-12-15T06:46:46.062Z,-9.03
2022-12-15T06:49:14.991Z,-9.09
2022-12-15T06:51:44.353Z,-9.80
2022-12-15T06:54:13.009Z,-9.08
2022-12-15T06:56:42.283Z,-9.66
2022-12-15T06:59:12.670Z,-8.73
2022-12-15T07:01:43.036Z,-8.66
2022-12-15T07:04:11.655Z,-8.62
2022-12-15T07:06:40.857Z,-8.89
2022-12-15T07:09:13.595Z,-8.53
2022-12-15T07:11:41.717Z,-8.39
2022-12-15T07:14:10.998Z,-8.24
2022-12-15T07:16:39.322Z,-9.17
2022-12-15T07:19:11.805Z,-8.44
2022-12-15T07:21:39.781Z,-8.90
2022-12-15T07:24:08.553Z,-8.89
2022-12-15T07:26:36.687Z,-8.81
2022-12-15T07:29:04.654Z,-9.00
2022-12-15T07:31:32.735Z,-8.91
2022-12-15T07:34:00.723Z,-8.53
2022-12-15T07:36:30.132Z,-8.46
2022-12-15T07:39:01.888Z,-8.77
2022-12-15T07:41:30.303Z,-8.29
2022-12-15T07:43:58.694Z,-8.17
2022-12-15T07:46:27.467Z,-8.20
2022-12-15T07:48:55.647Z,-8.00
2022-12-15T07:51:23.547Z,-8.03
2022-12-15T07:53:53.253Z,-7.79
2022-12-15T07:56:21.809Z,-7.93
2022-12-15T07:58:50.139Z,-8.19
2022-12-15T08:01:18.192Z,-8.06
2022-12-15T08:03:46.776Z,-8.06
2022-12-15T08:06:16.272Z,-8.22
2022-12-15T08:08:50.609Z,-8.46
2022-12-15T08:11:22.329Z,-9.16
2022-12-15T08:14:10.602Z,-8.26
2022-12-15T08:16:39.275Z,-8.21
2022-12-15T08:19:09.048Z,-8.03
2022-12-15T08:21:37.064Z,-7.91
2022-12-15T08:24:05.523Z,-7.85
2022-12-15T08:26:34.938Z,-7.99
2022-12-15T08:29:48.825Z,-8.07
2022-12-15T08:31:53.286Z,-7.89
2022-12-15T08:34:21.626Z,-7.80
2022-12-15T08:36:49.566Z,-7.77
2022-12-15T08:39:17.577Z,-7.53
2022-12-15T08:41:47.791Z,-7.43
2022-12-15T08:44:17.187Z,-7.31
2022-12-15T08:46:45.597Z,-7.43
2022-12-15T08:49:19.527Z,-7.28
2022-12-15T08:51:50.000Z,-6.96
2022-12-15T08:54:19.238Z,-6.85
2022-12-15T08:56:48.636Z,-6.72
2022-12-15T08:59:17.034Z,-6.65
2022-12-15T09:01:45.153Z,-6.54
2022-12-15T09:04:13.971Z,-6.75
2022-12-15T09:06:42.159Z,-6.50
2022-12-15T09:09:13.198Z,-6.24
2022-12-15T09:11:41.298Z,-6.07
2022-12-15T09:14:10.924Z,-5.88
2022-12-15T09:16:38.980Z,-5.75
2022-12-15T09:19:08.455Z,-5.86
2022-12-15T09:21:36.472Z,-5.50
2022-12-15T09:24:05.251Z,-5.37
2022-12-15T09:26:35.711Z,-5.32
2022-12-15T09:29:03.940Z,-5.33
2022-12-15T09:31:37.388Z,-5.24
2022-12-15T09:34:05.361Z,-5.36
2022-12-15T09:36:33.868Z,-5.28
2022-12-15T09:39:03.390Z,-5.40
2022-12-15T09:41:33.735Z,-4.67
2022-12-15T09:44:04.914Z,-4.68
2022-12-15T09:46:50.372Z,-4.63
2022-12-15T09:49:30.717Z,-5.78
2022-12-15T09:52:03.505Z,-4.48
2022-12-15T09:54:35.607Z,-4.38
2022-12-15T09:57:08.894Z,-4.36
2022-12-15T09:59:46.122Z,-4.44
2022-12-15T10:02:39.482Z,-5.44
2022-12-15T10:05:19.103Z,-4.04
2022-12-15T10:07:50.495Z,-4.07
2022-12-15T10:10:25.227Z,-4.01
2022-12-15T10:13:02.357Z,-3.98
2022-12-15T10:15:36.247Z,-3.95
2022-12-15T10:18:14.599Z,-3.90
2022-12-15T10:20:43.184Z,-4.19
2022-12-15T10:23:13.397Z,-3.83
2022-12-15T10:25:47.997Z,-3.55
2022-12-15T10:28:45.205Z,-3.52
2022-12-15T10:31:26.082Z,-3.34
2022-12-15T10:33:58.904Z,-3.34
2022-12-15T10:36:27.053Z,-3.38
2022-12-15T10:38:54.919Z,-3.04
2022-12-15T10:41:25.778Z,-3.11
2022-12-15T10:43:55.263Z,-3.13
2022-12-15T10:46:36.071Z,-3.10
2022-12-15T10:49:23.317Z,-3.07
2022-12-15T10:51:56.164Z,-3.19
2022-12-15T10:54:27.788Z,-2.93
2022-12-15T10:56:57.393Z,-2.95
2022-12-15T10:59:30.846Z,-2.77
2022-12-15T11:02:26.030Z,-3.31
2022-12-15T11:04:58.269Z,-2.74
2022-12-15T11:07:29.441Z,-2.74
2022-12-15T11:10:00.460Z,-2.65
2022-12-15T11:12:50.694Z,-2.57
2022-12-15T11:15:44.178Z,-2.60
2022-12-15T11:18:28.402Z,-2.53
2022-12-15T11:21:05.671Z,-2.92
2022-12-15T11:23:51.519Z,-2.54
2022-12-15T11:26:39.071Z,-2.42
2022-12-15T11:29:19.609Z,-2.37
2022-12-15T11:31:48.846Z,-2.43
2022-12-15T11:34:20.280Z,-2.41
2022-12-15T11:37:09.479Z,-2.56
2022-12-15T11:39:50.525Z,-2.46
2022-12-15T11:42:31.944Z,-2.34
2022-12-15T11:45:09.017Z,-2.96
2022-12-15T11:47:44.955Z,-2.39
2022-12-15T11:50:25.073Z,-2.90
2022-12-15T11:53:09.640Z,-2.08
2022-12-15T11:55:47.589Z,-2.09
2022-12-15T11:58:55.233Z,-2.04
2022-12-15T12:01:52.670Z,-1.89
2022-12-15T12:04:26.503Z,-2.64
2022-12-15T12:07:07.139Z,-2.58
2022-12-15T12:09:38.579Z,-2.13
2022-12-15T12:12:16.853Z,-1.90
2022-12-15T12:15:08.943Z,-2.38
2022-12-15T12:17:43.345Z,-1.80
2022-12-15T12:20:18.838Z,-1.82
2022-12-15T12:22:56.618Z,-2.45
2022-12-15T12:25:27.840Z,-1.82
2022-12-15T12:28:01.181Z,-1.69
2022-12-15T12:30:36.272Z,-1.70
2022-12-15T12:33:12.330Z,-1.68
2022-12-15T12:35:47.362Z,-1.75
2022-12-15T12:38:21.347Z,-1.87
2022-12-15T12:41:04.154Z,-1.65
2022-12-15T12:43:35.521Z,-1.70
2022-12-15T12:46:11.518Z,-1.86
2022-12-15T12:48:44.856Z,-2.24
2022-12-15T12:51:28.613Z,-1.70
2022-12-15T12:53:57.168Z,-1.61
2022-12-15T12:56:37.520Z,-2.54
2022-12-15T12:59:26.687Z,-1.69
2022-12-15T13:01:56.165Z,-1.62
2022-12-15T13:04:40.511Z,-1.58
2022-12-15T13:07:30.302Z,-1.65
2022-12-15T13:10:13.743Z,-1.75
2022-12-15T13:12:52.626Z,-1.72
2022-12-15T13:15:36.107Z,-1.70
2022-12-15T13:18:19.000Z,-1.81
2022-12-15T13:20:50.963Z,-1.74
2022-12-15T13:23:41.288Z,-1.75
2022-12-15T13:26:15.671Z,-1.72
2022-12-15T13:28:50.705Z,-1.88
2022-12-15T13:31:28.307Z,-2.22
2022-12-15T13:34:02.483Z,-2.57
2022-12-15T13:36:55.098Z,-1.80
2022-12-15T13:39:52.861Z,-1.82
2022-12-15T13:42:39.105Z,-2.76
2022-12-15T13:45:36.757Z,-1.83
2022-12-15T13:48:19.790Z,-1.89
2022-12-15T13:50:53.954Z,-1.92
2022-12-15T13:53:25.343Z,-2.00
2022-12-15T13:56:19.717Z,-2.02
2022-12-15T13:58:55.805Z,-2.07
2022-12-15T14:01:32.255Z,-2.13
2022-12-15T14:04:07.081Z,-2.20
2022-12-15T14:06:41.784Z,-2.25
2022-12-15T14:09:16.541Z,-2.26
2022-12-15T14:11:55.016Z,-2.26
2022-12-15T14:14:26.010Z,-2.17
2022-12-15T14:16:59.653Z,-2.29
2022-12-15T14:19:32.033Z,-2.42
2022-12-15T14:22:03.706Z,-2.49
2022-12-15T14:24:41.161Z,-2.61
2022-12-15T14:27:09.831Z,-2.53
2022-12-15T14:29:37.722Z,-2.64
2022-12-15T14:32:07.553Z,-2.67
2022-12-15T14:34:41.165Z,-2.78
2022-12-15T14:37:13.500Z,-2.67
2022-12-15T14:39:45.168Z,-2.95
2022-12-15T14:42:19.967Z,-2.90
2022-12-15T14:44:51.330Z,-2.80
2022-12-15T14:47:26.961Z,-2.93
2022-12-15T14:49:57.555Z,-3.03
2022-12-15T14:52:29.516Z,-3.20
2022-12-15T14:54:59.732Z,-3.35
2022-12-15T14:57:28.539Z,-3.08
2022-12-15T14:59:56.570Z,-3.38
2022-12-15T15:02:28.696Z,-3.43
2022-12-15T15:05:02.416Z,-3.31
2022-12-15T15:07:32.269Z,-3.43
2022-12-15T15:10:01.944Z,-3.40
2022-12-15T15:12:42.629Z,-3.52
2022-12-15T15:15:17.094Z,-3.50
2022-12-15T15:17:51.578Z,-3.44
2022-12-15T15:20:22.579Z,-3.54
2022-12-15T15:23:05.656Z,-3.75
2022-12-15T15:25:41.495Z,-3.45
2022-12-15T15:28:16.433Z,-3.51
2022-12-15T15:30:48.702Z,-3.57
2022-12-15T15:33:19.408Z,-3.91
2022-12-15T15:35:52.036Z,-3.79
2022-12-15T15:38:24.161Z,-3.89
2022-12-15T15:40:54.739Z,-4.03
2022-12-15T15:43:24.046Z,-4.26
2022-12-15T15:45:59.091Z,-4.09
2022-12-15T15:48:31.181Z,-3.98
2022-12-15T15:51:01.762Z,-3.99
2022-12-15T15:53:32.894Z,-4.13
2022-12-15T15:56:02.115Z,-4.61
2022-12-15T15:58:30.364Z,-4.47
2022-12-15T16:00:58.690Z,-4.46
2022-12-15T16:03:28.374Z,-4.99
2022-12-15T16:05:57.347Z,-4.85
2022-12-15T16:08:31.212Z,-4.65
2022-12-15T16:10:59.453Z,-4.74
2022-12-15T16:13:27.919Z,-5.31
2022-12-15T16:15:56.298Z,-4.75
2022-12-15T16:18:24.253Z,-4.76
2022-12-15T16:20:53.952Z,-4.62
2022-12-15T16:23:24.961Z,-4.41
2022-12-15T16:25:55.321Z,-4.82
2022-12-15T16:28:25.273Z,-4.48
2022-12-15T16:30:53.792Z,-4.51
2022-12-15T16:33:22.387Z,-4.60
2022-12-15T16:35:51.568Z,-4.71
2022-12-15T16:38:25.579Z,-4.80
2022-12-15T16:40:55.456Z,-4.68
2022-12-15T16:43:24.662Z,-4.87
2022-12-15T16:45:54.455Z,-5.00
2022-12-15T16:48:22.835Z,-5.03
2022-12-15T16:50:53.264Z,-5.32
2022-12-15T16:53:28.215Z,-5.12
2022-12-15T16:55:59.815Z,-5.62
2022-12-15T16:58:29.929Z,-5.67
2022-12-15T17:00:58.500Z,-5.29
2022-12-15T17:03:27.879Z,-5.95
2022-12-15T17:05:57.619Z,-5.20
2022-12-15T17:08:30.997Z,-5.60
2022-12-15T17:10:59.696Z,-5.40
2022-12-15T17:13:37.819Z,-5.48
2022-12-15T17:16:14.277Z,-6.37
2022-12-15T17:18:42.924Z,-5.53
2022-12-15T17:21:17.108Z,-5.57
2022-12-15T17:23:49.572Z,-5.38
2022-12-15T17:26:29.058Z,-5.35
2022-12-15T17:29:00.127Z,-5.30
2022-12-15T17:31:34.714Z,-5.75
2022-12-15T17:34:22.610Z,-5.18
2022-12-15T17:36:50.825Z,-5.26
2022-12-15T17:39:21.610Z,-5.15
2022-12-15T17:42:05.928Z,-5.38
2022-12-15T17:44:38.276Z,-5.33
2022-12-15T17:47:09.190Z,-5.53
2022-12-15T17:49:38.632Z,-5.74
2022-12-15T17:52:13.577Z,-5.58
2022-12-15T17:54:43.247Z,-5.74
2022-12-15T17:57:12.895Z,-6.08
2022-12-15T17:59:40.816Z,-5.76
2022-12-15T18:02:12.015Z,-6.22
2022-12-15T18:04:40.431Z,-5.58
2022-12-15T18:07:15.016Z,-5.64
2022-12-15T18:09:44.262Z,-5.78
2022-12-15T18:12:18.870Z,-5.77
2022-12-15T18:14:46.739Z,-5.95
2022-12-15T18:17:14.944Z,-5.77
2022-12-15T18:19:42.825Z,-6.01
2022-12-15T18:22:14.313Z,-5.68
2022-12-15T18:24:42.274Z,-6.16
2022-12-15T18:27:21.703Z,-5.74
2022-12-15T18:29:49.641Z,-6.02
2022-12-15T18:32:18.476Z,-6.10
2022-12-15T18:34:46.932Z,-6.21
2022-12-15T18:37:17.470Z,-6.21
2022-12-15T18:39:46.139Z,-6.26
2022-12-15T18:42:18.729Z,-6.65
2022-12-15T18:44:49.928Z,-6.39
2022-12-15T18:47:19.294Z,-6.35
2022-12-15T18:49:47.436Z,-6.32
2022-12-15T18:52:18.792Z,-6.34
2022-12-15T18:54:48.069Z,-6.38
2022-12-15T18:57:30.355Z,-6.41
2022-12-15T18:59:59.940Z,-6.54
2022-12-15T19:02:28.013Z,-6.27
2022-12-15T19:04:56.033Z,-6.34
2022-12-15T19:07:24.045Z,-6.37
2022-12-15T19:09:52.136Z,-6.60
2022-12-15T19:12:20.061Z,-6.27
2022-12-15T19:14:51.759Z,-6.10
2022-12-15T19:17:39.127Z,-6.15
2022-12-15T19:20:33.028Z,-6.12
2022-12-15T19:23:00.965Z,-6.35
2022-12-15T19:25:30.539Z,-6.39
2022-12-15T19:28:00.087Z,-6.13
2022-12-15T19:30:33.152Z,-6.27
2022-12-15T19:33:04.333Z,-6.37
2022-12-15T19:35:33.376Z,-6.32
2022-12-15T19:38:04.525Z,-6.03
2022-12-15T19:40:36.496Z,-6.07
2022-12-15T19:43:05.177Z,-6.23
2022-12-15T19:45:34.848Z,-6.20
2022-12-15T19:48:02.784Z,-6.35
2022-12-15T19:50:36.278Z,-6.33
2022-12-15T19:53:08.224Z,-6.51
2022-12-15T19:55:37.308Z,-6.54
2022-12-15T19:58:22.242Z,-7.34
2022-12-15T20:00:55.892Z,-6.93
2022-12-15T20:03:23.934Z,-6.90
2022-12-15T20:05:53.671Z,-7.04
2022-12-15T20:08:24.626Z,-7.63
2022-12-15T20:10:53.895Z,-7.13
2022-12-15T20:13:22.691Z,-7.01
2022-12-15T20:15:50.856Z,-7.35
2022-12-15T20:18:20.300Z,-7.15
2022-12-15T20:20:49.978Z,-7.30
2022-12-15T20:23:20.609Z,-7.12
2022-12-15T20:25:48.648Z,-7.51
2022-12-15T20:28:20.204Z,-7.00
2022-12-15T20:30:48.816Z,-7.15
2022-12-15T20:33:17.324Z,-7.03
2022-12-15T20:35:48.172Z,-7.07
2022-12-15T20:38:20.923Z,-7.12
2022-12-15T20:40:49.196Z,-7.26
2022-12-15T20:43:20.490Z,-7.24
2022-12-15T20:45:56.345Z,-7.30
2022-12-15T20:48:26.598Z,-7.29
2022-12-15T20:50:55.885Z,-7.28
2022-12-15T20:53:26.556Z,-7.19
2022-12-15T20:55:56.094Z,-7.32
2022-12-15T20:58:29.769Z,-7.54
2022-12-15T21:01:00.966Z,-8.23
2022-12-15T21:03:31.517Z,-7.45
2022-12-15T21:06:01.560Z,-7.48
2022-12-15T21:08:32.024Z,-7.43
2022-12-15T21:11:08.456Z,-7.47
2022-12-15T21:13:36.608Z,-8.01
2022-12-15T21:16:04.605Z,-7.75
2022-12-15T21:21:27.269Z,-7.94
2022-12-15T21:23:56.182Z,-7.86
2022-12-15T21:26:25.919Z,-7.69
2022-12-15T21:28:59.071Z,-7.90
2022-12-15T21:31:27.401Z,-8.14
2022-12-15T21:33:55.621Z,-7.84
2022-12-15T21:36:25.497Z,-7.94
2022-12-15T21:38:53.467Z,-7.85
2022-12-15T21:41:24.392Z,-7.85
2022-12-15T21:43:52.576Z,-8.20
2022-12-15T21:46:28.399Z,-8.63
2022-12-15T21:49:14.414Z,-7.42
2022-12-15T21:51:46.627Z,-7.37
2022-12-15T21:54:19.251Z,-7.35
2022-12-15T21:56:48.546Z,-7.94
2022-12-15T21:59:19.900Z,-7.84
2022-12-15T22:01:48.532Z,-7.64
2022-12-15T22:04:19.642Z,-7.49
2022-12-15T22:06:50.877Z,-7.78
2022-12-15T22:09:21.145Z,-8.03
2022-12-15T22:11:52.904Z,-7.99
2022-12-15T22:14:26.335Z,-7.89
2022-12-15T22:16:55.847Z,-8.09
2022-12-15T22:19:24.102Z,-8.02
2022-12-15T22:21:53.526Z,-7.92
2022-12-15T22:24:21.686Z,-8.15
2022-12-15T22:26:50.044Z,-8.28
2022-12-15T22:29:21.726Z,-8.08
2022-12-15T22:31:50.670Z,-8.08
2022-12-15T22:34:21.638Z,-8.37
2022-12-15T22:36:50.794Z,-8.30
2022-12-15T22:39:21.613Z,-8.27
2022-12-15T22:41:52.323Z,-8.15
2022-12-15T22:44:23.956Z,-8.17
2022-12-15T22:46:54.881Z,-8.46
2022-12-15T22:49:26.151Z,-8.20
2022-12-15T22:51:54.938Z,-8.09
2022-12-15T22:54:26.766Z,-8.11
2022-12-15T22:56:58.727Z,-9.25
2022-12-15T22:59:31.495Z,-8.48
2022-12-15T23:02:00.013Z,-8.70
2022-12-15T23:04:28.007Z,-8.47
2022-12-15T23:06:56.056Z,-8.37
2022-12-15T23:09:25.447Z,-8.34
2022-12-15T23:11:52.566Z,-8.56
2022-12-15T23:14:40.711Z,-8.33
2022-12-15T23:17:07.741Z,-8.33
2022-12-15T23:19:36.584Z,-8.52
2022-12-15T23:22:05.226Z,-8.96
2022-12-15T23:24:37.582Z,-8.28
2022-12-15T23:27:05.514Z,-8.54
2022-12-15T23:29:33.469Z,-9.14
2022-12-15T23:32:01.727Z,-8.22
2022-12-15T23:34:29.620Z,-8.46
2022-12-15T23:36:58.225Z,-8.89
2022-12-15T23:39:26.225Z,-8.35
2022-12-15T23:41:55.463Z,-8.36
2022-12-15T23:44:23.413Z,-9.08
2022-12-15T23:46:51.701Z,-8.58
2022-12-15T23:49:19.585Z,-8.73
2022-12-15T23:51:48.346Z,-8.41
2022-12-15T23:54:16.780Z,-8.66
2022-12-15T23:56:44.697Z,-8.49
2022-12-15T23:59:14.173Z,-8.59
